Time;durP1;ratioP1;P1;durP2;ratioP2;P2;SDS_P1;SDS_P2;PMS_P1;PMS_P2;Temp;Humidity;BMP_temperature;BMP_pressure;BME280_temperature;BME280_humidity;BME280_pressure;Samples;Min_cycle;Max_cycle;Signal;HPM_P1;HPM_P2
2021/08/05 00:01:06;;;;;;;0.00;0.00;;;;;;;24.15;45.50;100066.75;4992209;28;20455;-54
2021/08/05 00:03:33;;;;;;;0.00;0.00;;;;;;;24.14;45.57;100067.78;4992186;28;20109;-56
2021/08/05 00:05:59;;;;;;;0.00;0.00;;;;;;;24.11;45.64;100060.91;4992099;28;20058;-55
2021/08/05 00:08:24;;;;;;;0.20;0.20;;;;;;;24.12;45.46;100064.41;4991493;28;20046;-55
2021/08/05 00:10:50;;;;;;;0.35;0.35;;;;;;;24.12;45.62;100059.06;4991997;28;20113;-55
2021/08/05 00:13:16;;;;;;;0.10;0.10;;;;;;;24.05;45.50;100053.53;4992006;28;20109;-54
2021/08/05 00:15:42;;;;;;;0.20;0.20;;;;;;;24.07;45.63;100064.06;4991753;28;20600;-54
2021/08/05 00:18:08;;;;;;;0.00;0.00;;;;;;;24.09;45.64;100067.38;4991766;28;20328;-55
2021/08/05 00:20:34;;;;;;;0.05;0.05;;;;;;;24.07;45.65;100072.06;4990500;28;20054;-53
2021/08/05 00:23:00;;;;;;;0.10;0.10;;;;;;;24.06;45.65;100075.72;4989988;28;20101;-53
2021/08/05 00:25:26;;;;;;;0.10;0.10;;;;;;;24.04;45.66;100075.06;4990578;28;20050;-53
2021/08/05 00:27:52;;;;;;;0.43;0.43;;;;;;;24.04;45.71;100083.91;4991348;28;20706;-54
2021/08/05 00:30:19;;;;;;;0.55;0.55;;;;;;;24.02;45.62;100074.41;4974152;28;20050;-55
2021/08/05 00:32:45;;;;;;;0.10;0.10;;;;;;;24.03;45.61;100076.06;4991268;28;20060;-53
2021/08/05 00:35:11;;;;;;;0.10;0.10;;;;;;;24.01;45.58;100068.22;4990246;28;20046;-54
2021/08/05 00:37:37;;;;;;;0.10;0.10;;;;;;;23.94;45.61;100056.53;4991442;28;20531;-55
2021/08/05 00:40:04;;;;;;;0.00;0.00;;;;;;;23.99;45.84;100064.88;4991413;28;20133;-52
2021/08/05 00:42:31;;;;;;;0.10;0.10;;;;;;;23.98;45.59;100065.06;4973908;28;20054;-52
2021/08/05 00:44:57;;;;;;;0.10;0.10;;;;;;;23.97;45.71;100068.72;4973873;28;20081;-52
2021/08/05 00:47:26;;;;;;;0.10;0.10;;;;;;;23.96;45.77;100070.53;4990054;28;20046;-57
2021/08/05 00:49:52;;;;;;;0.10;0.10;;;;;;;23.94;45.75;100063.72;4991118;28;20050;-57
2021/08/05 00:52:18;;;;;;;0.00;0.00;;;;;;;23.93;45.59;100064.69;4989952;28;20133;-58
2021/08/05 00:54:44;;;;;;;0.10;0.10;;;;;;;23.89;45.70;100064.19;4973660;28;20057;-57
2021/08/05 00:57:10;;;;;;;0.13;0.13;;;;;;;23.92;45.75;100069.19;4973646;28;20080;-56
2021/08/05 00:59:36;;;;;;;0.13;0.13;;;;;;;23.86;45.66;100065.34;4973583;28;20058;-56
2021/08/05 01:02:09;;;;;;;0.00;0.00;;;;;;;23.90;45.80;100062.34;4973305;28;20436;-57
2021/08/05 01:04:35;;;;;;;0.10;0.10;;;;;;;23.81;45.74;100050.84;4989709;28;20133;-56
2021/08/05 01:07:14;;;;;;;0.32;0.32;;;;;;;23.91;45.73;100077.38;4990785;28;20054;-57
2021/08/05 01:10:00;;;;;;;0.10;0.10;;;;;;;23.90;45.66;100075.69;4973504;28;20090;-57
2021/08/05 01:12:42;;;;;;;0.20;0.20;;;;;;;23.89;45.63;100082.06;4973463;28;20090;-57
2021/08/05 01:15:16;;;;;;;0.00;0.00;;;;;;;23.89;45.75;100074.84;4973540;28;20058;-58
2021/08/05 01:17:52;;;;;;;0.00;0.00;;;;;;;23.88;45.78;100069.69;4956990;28;20196;-55
2021/08/05 01:20:19;;;;;;;0.10;0.10;;;;;;;23.84;45.63;100066.53;4988698;28;20054;-58
2021/08/05 01:23:11;;;;;;;0.10;0.10;;;;;;;23.81;45.72;100059.69;4990376;28;20058;-57
2021/08/05 01:25:59;;;;;;;0.43;0.43;;;;;;;23.85;45.66;100066.34;4989441;28;20050;-57
2021/08/05 01:28:25;;;;;;;0.10;0.10;;;;;;;23.78;45.58;100064.50;4973108;28;20050;-57
2021/08/05 01:30:51;;;;;;;0.08;0.08;;;;;;;23.82;45.72;100072.00;4990415;28;20084;-57
2021/08/05 01:33:19;;;;;;;0.55;0.55;;;;;;;23.81;45.70;100070.38;4973027;28;20504;-58
2021/08/05 01:35:45;;;;;;;0.57;0.57;;;;;;;23.82;45.61;100077.34;4989002;28;20058;-57
2021/08/05 01:38:12;;;;;;;0.28;0.28;;;;;;;23.83;45.57;100081.69;4973012;28;20058;-57
2021/08/05 01:40:39;;;;;;;0.10;0.10;;;;;;;23.80;45.64;100075.84;4990513;28;20073;-57
2021/08/05 01:43:05;;;;;;;0.10;0.10;;;;;;;23.82;45.49;100085.34;4972554;28;20109;-58
2021/08/05 01:45:31;;;;;;;0.10;0.10;;;;;;;23.78;45.66;100089.34;4989245;28;20046;-56
2021/08/05 01:47:57;;;;;;;0.15;0.15;;;;;;;23.85;45.59;100095.69;4988934;28;20061;-56
2021/08/05 01:50:23;;;;;;;0.15;0.15;;;;;;;23.85;45.41;100095.69;4990488;28;20046;-53
2021/08/05 01:52:50;;;;;;;0.10;0.10;;;;;;;23.85;45.29;100090.34;4988747;28;20054;-53
2021/08/05 01:55:16;;;;;;;0.43;0.43;;;;;;;23.90;45.32;100089.03;4990543;28;20065;-54
2021/08/05 01:57:42;;;;;;;0.32;0.32;;;;;;;23.76;45.17;100062.00;4988879;28;20069;-54
2021/08/05 02:00:10;;;;;;;0.70;0.50;;;;;;;23.98;45.05;100095.25;4972820;28;20061;-53
2021/08/05 02:02:41;;;;;;;0.10;0.10;;;;;;;24.09;44.70;100086.06;4990310;28;20061;-50
2021/08/05 02:05:08;;;;;;;0.15;0.15;;;;;;;24.38;44.20;100094.44;4972540;28;20046;-50
2021/08/05 02:07:53;;;;;;;0.25;0.25;;;;;;;24.73;43.47;100099.47;4972786;28;20065;-54
2021/08/05 02:10:42;;;;;;;0.20;0.20;;;;;;;25.07;42.37;100093.06;4972708;28;20134;-51
2021/08/05 02:13:17;;;;;;;0.17;0.17;;;;;;;25.39;41.73;100095.66;4972534;28;20051;-54
2021/08/05 02:15:49;;;;;;;0.10;0.10;;;;;;;25.62;41.06;100080.50;4988764;28;20420;-53
2021/08/05 02:18:15;;;;;;;0.10;0.10;;;;;;;25.96;40.30;100090.03;4988459;28;20061;-51
2021/08/05 02:20:42;;;;;;;0.30;0.30;;;;;;;26.21;39.82;100084.34;4972470;28;20446;-53
2021/08/05 02:23:15;;;;;;;0.10;0.10;;;;;;;26.51;39.17;100100.53;4956244;28;20057;-54
2021/08/05 02:25:41;;;;;;;0.30;0.30;;;;;;;26.73;38.81;100097.81;4988661;28;20149;-55
2021/08/05 02:28:07;;;;;;;0.20;0.20;;;;;;;26.97;38.14;100095.94;4988605;28;20479;-54
2021/08/05 02:30:33;;;;;;;0.30;0.30;;;;;;;27.14;37.88;100090.22;4973483;28;20053;-54
2021/08/05 02:33:00;;;;;;;0.10;0.10;;;;;;;27.45;37.16;100098.09;4976487;28;20162;-55
2021/08/05 02:35:27;;;;;;;0.13;0.13;;;;;;;27.66;36.96;100098.16;4992653;28;20057;-56
2021/08/05 02:37:53;;;;;;;0.10;0.10;;;;;;;27.85;36.15;100096.72;4993393;28;20069;-56
2021/08/05 02:40:19;;;;;;;0.15;0.15;;;;;;;28.07;35.99;100094.94;4992659;28;20508;-54
2021/08/05 02:42:46;;;;;;;0.20;0.20;;;;;;;28.22;35.66;100090.34;4959963;28;20062;-57
2021/08/05 02:45:12;;;;;;;0.10;0.10;;;;;;;28.22;35.74;100103.75;4960268;28;20050;-55
2021/08/05 02:47:39;;;;;;;0.10;0.10;;;;;;;28.09;35.88;100098.25;4976306;28;20104;-52
2021/08/05 02:50:05;;;;;;;0.10;0.10;;;;;;;28.42;35.47;100102.09;4991787;28;20062;-53
2021/08/05 02:52:32;;;;;;;0.20;0.20;;;;;;;28.76;34.67;100096.81;4976105;28;20054;-53
2021/08/05 02:54:59;;;;;;;0.30;0.30;;;;;;;29.07;33.90;100103.66;4975609;28;20141;-54
2021/08/05 02:57:25;;;;;;;0.15;0.15;;;;;;;29.28;33.39;100098.25;4992054;28;20058;-51
2021/08/05 02:59:51;;;;;;;0.10;0.10;;;;;;;29.52;32.99;100107.66;4991814;28;20046;-54
2021/08/05 03:02:17;;;;;;;0.40;0.40;;;;;;;29.71;32.73;100110.44;4959903;28;20060;-54
2021/08/05 03:04:44;;;;;;;0.32;0.32;;;;;;;29.83;32.00;100098.09;4993462;28;20094;-54
2021/08/05 03:07:10;;;;;;;0.57;0.57;;;;;;;30.09;31.64;100099.19;4993064;28;20047;-54
2021/08/05 03:09:36;;;;;;;0.10;0.10;;;;;;;30.35;31.20;100100.06;4975715;28;20108;-51
2021/08/05 03:12:02;;;;;;;0.20;0.20;;;;;;;30.61;30.83;100103.84;4992757;28;20054;-53
2021/08/05 03:14:28;;;;;;;0.30;0.30;;;;;;;30.73;30.75;100092.22;4992822;28;20058;-53
2021/08/05 03:16:54;;;;;;;0.30;0.30;;;;;;;30.92;30.51;100101.34;4992656;28;20078;-55
2021/08/05 03:19:21;;;;;;;0.22;0.22;;;;;;;31.02;30.30;100098.25;4992825;28;20046;-53
2021/08/05 03:21:46;;;;;;;0.30;0.30;;;;;;;31.08;29.95;100089.28;4991351;28;20557;-53
2021/08/05 03:24:13;;;;;;;0.20;0.20;;;;;;;31.18;29.96;100089.69;4992739;28;20042;-51
2021/08/05 03:26:38;;;;;;;0.20;0.20;;;;;;;31.26;29.59;100084.88;4992742;28;20065;-53
2021/08/05 03:29:06;;;;;;;0.20;0.20;;;;;;;31.40;29.65;100085.66;4992308;28;20050;-51
2021/08/05 03:31:32;;;;;;;0.47;0.45;;;;;;;31.63;29.22;100091.44;4992671;28;20528;-53
2021/08/05 03:33:58;;;;;;;0.20;0.20;;;;;;;31.82;28.82;100081.56;4992332;28;20050;-54
2021/08/05 03:36:24;;;;;;;0.15;0.15;;;;;;;32.01;28.69;100088.72;4992463;28;20074;-54
2021/08/05 03:38:50;;;;;;;0.30;0.30;;;;;;;32.14;28.37;100091.38;4992218;28;20108;-55
2021/08/05 03:41:16;;;;;;;0.25;0.25;;;;;;;32.14;28.26;100091.38;4992642;28;20050;-52
2021/08/05 03:43:42;;;;;;;0.38;0.38;;;;;;;31.99;28.73;100094.34;4991530;28;20058;-54
2021/08/05 03:46:08;;;;;;;0.20;0.20;;;;;;;31.81;28.94;100094.22;4992234;28;20611;-55
2021/08/05 03:48:33;;;;;;;0.55;0.55;;;;;;;31.65;29.01;100092.03;4992447;28;20080;-54
2021/08/05 03:51:00;;;;;;;0.75;0.75;;;;;;;31.60;29.34;100097.25;4990789;28;20480;-55
2021/08/05 03:53:25;;;;;;;0.38;0.38;;;;;;;31.51;29.60;100095.84;4974768;28;20137;-54
2021/08/05 03:55:52;;;;;;;0.10;0.10;;;;;;;31.53;29.41;100093.75;4992222;28;20057;-54
2021/08/05 03:58:18;;;;;;;0.25;0.25;;;;;;;31.58;29.35;100096.63;4992156;28;20050;-53
2021/08/05 04:00:44;;;;;;;0.20;0.20;;;;;;;31.73;29.32;100094.50;4992188;28;20058;-55
2021/08/05 04:03:10;;;;;;;0.22;0.22;;;;;;;31.93;28.71;100089.81;4991634;28;20061;-53
2021/08/05 04:05:36;;;;;;;0.20;0.20;;;;;;;32.22;28.40;100093.81;4992160;28;20453;-54
2021/08/05 04:08:02;;;;;;;0.40;0.40;;;;;;;32.26;28.34;100092.34;4991569;28;20062;-51
2021/08/05 04:10:28;;;;;;;0.20;0.20;;;;;;;32.40;28.37;100087.66;4990673;28;20050;-55
2021/08/05 04:12:54;;;;;;;0.60;0.60;;;;;;;32.45;28.22;100071.59;4991862;28;20054;-54
2021/08/05 04:15:21;;;;;;;0.20;0.20;;;;;;;32.64;27.79;100076.03;4991838;28;20049;-56
2021/08/05 04:17:46;;;;;;;0.20;0.20;;;;;;;32.69;28.04;100089.72;4991679;28;20054;-53
2021/08/05 04:20:13;;;;;;;0.40;0.40;;;;;;;32.88;27.80;100080.63;4978372;28;20216;-54
2021/08/05 04:22:39;;;;;;;0.22;0.22;;;;;;;33.05;27.42;100078.13;4993896;28;20102;-57
2021/08/05 04:25:06;;;;;;;0.40;0.40;;;;;;;33.24;27.19;100076.31;5010789;28;20046;-53
2021/08/05 04:27:32;;;;;;;0.20;0.20;;;;;;;33.28;26.66;100066.69;5011269;28;20389;-52
2021/08/05 04:29:58;;;;;;;0.25;0.25;;;;;;;33.44;26.89;100079.59;4993333;28;20120;-58
2021/08/05 04:32:24;;;;;;;0.20;0.20;;;;;;;33.49;26.60;100069.75;5009451;28;20050;-58
2021/08/05 04:34:50;;;;;;;0.10;0.10;;;;;;;33.39;27.00;100076.75;4993448;28;20230;-56
2021/08/05 04:37:18;;;;;;;0.43;0.43;;;;;;;33.47;26.58;100077.28;5010635;28;20188;-56
2021/08/05 04:39:44;;;;;;;0.20;0.20;;;;;;;33.57;26.74;100068.63;5010689;28;20432;-57
2021/08/05 04:42:10;;;;;;;0.20;0.20;;;;;;;33.65;26.31;100068.31;4993049;28;20054;-54
2021/08/05 04:44:36;;;;;;;0.20;0.20;;;;;;;33.82;26.32;100074.75;5010748;28;20050;-56
2021/08/05 04:47:03;;;;;;;0.30;0.30;;;;;;;33.94;25.96;100077.50;5010684;28;20054;-55
2021/08/05 04:49:29;;;;;;;0.40;0.40;;;;;;;34.03;25.91;100078.84;5010581;28;20065;-54
2021/08/05 04:51:55;;;;;;;0.20;0.20;;;;;;;34.13;25.89;100084.53;5010464;28;20057;-54
2021/08/05 04:54:21;;;;;;;0.20;0.20;;;;;;;34.19;25.82;100075.50;5010376;28;20534;-54
2021/08/05 04:56:47;;;;;;;0.15;0.15;;;;;;;34.06;25.72;100075.66;5010601;28;20049;-54
2021/08/05 04:59:13;;;;;;;0.20;0.20;;;;;;;33.99;26.10;100070.34;5010130;28;20042;-55
2021/08/05 05:01:39;;;;;;;1.13;1.13;;;;;;;34.07;26.22;100068.34;5010344;28;20148;-56
2021/08/05 05:04:05;;;;;;;0.20;0.20;;;;;;;34.17;26.08;100076.75;5010196;28;20199;-53
2021/08/05 05:06:31;;;;;;;0.20;0.20;;;;;;;34.26;25.87;100078.09;5010652;28;20050;-56
2021/08/05 05:08:57;;;;;;;0.60;0.60;;;;;;;34.42;25.46;100080.13;5010091;28;20056;-57
2021/08/05 05:11:22;;;;;;;0.20;0.20;;;;;;;34.52;25.14;100078.47;5010355;28;20045;-54
2021/08/05 05:13:48;;;;;;;0.30;0.30;;;;;;;34.69;25.02;100086.78;5010096;28;20056;-55
2021/08/05 05:16:15;;;;;;;0.70;0.70;;;;;;;34.80;24.68;100077.84;5010143;28;20054;-56
2021/08/05 05:18:41;;;;;;;0.32;0.32;;;;;;;34.92;24.85;100086.78;4992584;28;20046;-56
2021/08/05 05:21:07;;;;;;;0.35;0.35;;;;;;;35.02;24.36;100086.19;4997867;28;20065;-55
2021/08/05 05:23:33;;;;;;;0.77;0.77;;;;;;;35.07;24.23;100078.16;4989154;28;20145;-56
2021/08/05 05:25:59;;;;;;;0.43;0.43;;;;;;;35.08;24.28;100084.44;4988873;28;20468;-53
2021/08/05 05:28:26;;;;;;;0.20;0.20;;;;;;;35.15;24.05;100082.41;4990510;28;20046;-55
2021/08/05 05:30:53;;;;;;;0.28;0.28;;;;;;;35.19;24.19;100070.84;4990406;28;20049;-56
2021/08/05 05:33:19;;;;;;;0.30;0.30;;;;;;;35.20;24.28;100068.97;4990134;28;20046;-56
2021/08/05 05:35:45;;;;;;;0.25;0.25;;;;;;;35.22;23.93;100066.81;4990396;28;20419;-57
2021/08/05 05:38:11;;;;;;;0.25;0.25;;;;;;;35.33;23.80;100061.38;4989977;28;20098;-55
2021/08/05 05:40:37;;;;;;;0.20;0.20;;;;;;;35.43;23.77;100067.03;4990387;28;20091;-56
2021/08/05 05:43:04;;;;;;;0.10;0.10;;;;;;;34.76;24.52;100076.66;4988742;28;20145;-57
2021/08/05 05:45:30;;;;;;;0.10;0.10;;;;;;;34.10;25.58;100070.63;4990244;28;20492;-57
2021/08/05 05:47:56;;;;;;;0.20;0.20;;;;;;;33.69;25.81;100069.50;4990037;28;20141;-58
2021/08/05 05:50:23;;;;;;;0.45;0.45;;;;;;;33.73;25.82;100065.31;4990101;28;20069;-58
2021/08/05 05:52:48;;;;;;;0.17;0.17;;;;;;;34.14;25.56;100072.63;4990147;28;20513;-57
2021/08/05 05:55:15;;;;;;;0.20;0.20;;;;;;;34.41;25.15;100060.31;4989937;28;20042;-56
2021/08/05 05:57:40;;;;;;;0.30;0.30;;;;;;;34.75;24.61;100069.56;4990133;28;20056;-56
2021/08/05 06:00:07;;;;;;;0.10;0.10;;;;;;;34.88;24.50;100074.75;4989683;28;20348;-56
2021/08/05 06:02:38;;;;;;;0.10;0.10;;;;;;;34.96;24.25;100066.25;4990218;28;20121;-57
2021/08/05 06:05:05;;;;;;;0.65;0.65;;;;;;;35.09;24.24;100058.91;4989071;28;20559;-56
2021/08/05 06:07:41;;;;;;;0.25;0.25;;;;;;;35.16;24.16;100056.94;4996470;28;20057;-56
2021/08/05 06:10:07;;;;;;;0.20;0.20;;;;;;;35.27;23.90;100051.50;4996190;28;20078;-58
2021/08/05 06:12:33;;;;;;;0.30;0.30;;;;;;;35.38;23.61;100047.06;4996585;28;20234;-56
2021/08/05 06:14:59;;;;;;;0.47;0.47;;;;;;;35.43;23.50;100044.47;4996100;28;20092;-58
2021/08/05 06:17:25;;;;;;;0.25;0.25;;;;;;;35.45;23.60;100039.59;4996306;28;20464;-57
2021/08/05 06:19:51;;;;;;;0.20;0.20;;;;;;;35.67;23.25;100039.81;4996095;28;20049;-56
2021/08/05 06:22:17;;;;;;;0.10;0.10;;;;;;;35.96;23.04;100044.16;4996141;28;20081;-56
2021/08/05 06:24:43;;;;;;;0.20;0.20;;;;;;;37.62;21.14;100045.84;4996301;28;20058;-53
2021/08/05 06:27:09;;;;;;;0.20;0.20;;;;;;;42.20;15.97;100044.28;4978688;28;20133;-55
2021/08/05 06:29:35;;;;;;;0.60;0.60;;;;;;;45.39;13.15;100043.22;4996243;28;20120;-54
2021/08/05 06:32:01;;;;;;;0.80;0.80;;;;;;;47.11;11.85;100038.88;4994720;28;20052;-55
2021/08/05 06:34:27;;;;;;;1.10;1.10;;;;;;;48.06;10.60;100044.22;4996195;28;20053;-55
2021/08/05 06:36:53;;;;;;;0.90;0.90;;;;;;;48.86;10.37;100039.78;4996160;28;20054;-56
2021/08/05 06:39:19;;;;;;;0.75;0.75;;;;;;;49.63;9.78;100052.41;4995947;28;20434;-56
2021/08/05 06:41:45;;;;;;;0.77;0.77;;;;;;;49.99;9.44;100044.28;4994681;28;20183;-56
2021/08/05 06:44:11;;;;;;;0.60;0.60;;;;;;;50.21;9.42;100045.03;4995829;28;20050;-55
2021/08/05 06:46:37;;;;;;;0.60;0.60;;;;;;;50.22;8.99;100035.56;4996160;28;20551;-56
2021/08/05 06:49:04;;;;;;;0.50;0.50;;;;;;;49.30;9.82;100037.63;4995823;28;20061;-54
2021/08/05 06:51:30;;;;;;;1.25;0.95;;;;;;;45.82;12.19;100038.91;4996242;28;20050;-56
2021/08/05 06:53:56;;;;;;;0.30;0.30;;;;;;;42.13;15.33;100040.19;4995951;28;20061;-55
2021/08/05 06:56:22;;;;;;;0.10;0.10;;;;;;;39.64;17.70;100041.84;4994477;28;20057;-55
2021/08/05 06:58:48;;;;;;;0.40;0.40;;;;;;;38.12;19.56;100042.00;4996383;28;20111;-55
2021/08/05 07:01:14;;;;;;;0.52;0.52;;;;;;;37.12;20.39;100043.31;4995783;28;20397;-54
2021/08/05 07:03:40;;;;;;;0.10;0.10;;;;;;;36.43;21.38;100028.34;4994481;28;20058;-55
2021/08/05 07:06:06;;;;;;;0.90;0.90;;;;;;;36.00;22.02;100031.69;4994542;28;20049;-55
2021/08/05 07:08:34;;;;;;;0.10;0.10;;;;;;;35.60;22.55;100026.38;4978809;28;20536;-56
2021/08/05 07:11:00;;;;;;;0.15;0.15;;;;;;;35.09;23.18;100021.72;4978425;28;20082;-58
2021/08/05 07:13:26;;;;;;;0.22;0.22;;;;;;;34.86;23.26;100014.44;4995987;28;20104;-56
2021/08/05 07:15:52;;;;;;;0.80;0.68;;;;;;;34.83;23.44;100014.94;4995847;28;20499;-54
2021/08/05 07:18:17;;;;;;;0.08;0.08;;;;;;;34.69;23.90;100027.09;4993051;28;20090;-55
2021/08/05 07:20:44;;;;;;;0.10;0.10;;;;;;;34.57;23.96;100031.66;4992577;28;20049;-54
2021/08/05 07:23:10;;;;;;;0.20;0.20;;;;;;;34.46;24.06;100027.06;4975046;28;20056;-55
2021/08/05 07:25:36;;;;;;;0.20;0.20;;;;;;;34.36;23.94;100022.22;4992803;28;20053;-57
2021/08/05 07:28:03;;;;;;;0.10;0.10;;;;;;;34.29;24.19;100031.53;4992710;28;20456;-55
2021/08/05 07:30:30;;;;;;;0.10;0.10;;;;;;;34.18;24.52;100018.78;4992672;28;20070;-56
2021/08/05 07:32:56;;;;;;;0.10;0.10;;;;;;;34.10;24.63;100019.91;4992721;28;20057;-56
2021/08/05 07:35:22;;;;;;;0.10;0.10;;;;;;;33.97;24.82;100020.94;4992358;28;20120;-57
2021/08/05 07:37:47;;;;;;;0.10;0.10;;;;;;;33.79;24.94;100022.91;4992594;28;20504;-57
2021/08/05 07:40:14;;;;;;;0.10;0.10;;;;;;;33.75;24.89;100025.25;4990931;28;20051;-55
2021/08/05 07:42:39;;;;;;;0.10;0.10;;;;;;;33.74;24.75;100015.44;4992477;28;20080;-57
2021/08/05 07:45:06;;;;;;;0.45;0.10;;;;;;;33.62;24.66;100022.72;4992244;28;20500;-56
2021/08/05 07:47:32;;;;;;;0.15;0.15;;;;;;;33.53;24.85;100015.94;4992329;28;20077;-56
2021/08/05 07:49:58;;;;;;;1.45;0.52;;;;;;;33.36;25.52;100014.91;4992257;28;20042;-58
2021/08/05 07:52:24;;;;;;;0.00;0.00;;;;;;;33.00;25.48;100013.03;4990662;28;20050;-56
2021/08/05 07:54:50;;;;;;;0.10;0.10;;;;;;;32.88;25.90;100012.13;4992137;28;20054;-57
2021/08/05 07:57:16;;;;;;;0.10;0.10;;;;;;;32.89;25.97;100008.34;4991998;28;20137;-56
2021/08/05 07:59:42;;;;;;;0.00;0.00;;;;;;;32.77;26.39;100002.88;4992171;28;20045;-56
2021/08/05 08:02:09;;;;;;;0.00;0.00;;;;;;;32.80;25.93;100013.25;4991754;28;20096;-57
2021/08/05 08:04:36;;;;;;;0.25;0.25;;;;;;;32.87;26.29;100005.91;4992072;28;20046;-56
2021/08/05 08:07:04;;;;;;;0.20;0.20;;;;;;;32.77;26.07;100000.19;4992034;28;20115;-56
2021/08/05 08:09:30;;;;;;;0.10;0.10;;;;;;;32.81;26.05;100001.38;4974481;28;20492;-56
2021/08/05 08:11:56;;;;;;;0.00;0.00;;;;;;;32.81;26.07;100004.09;4974541;28;20054;-56
2021/08/05 08:14:22;;;;;;;0.10;0.10;;;;;;;32.61;26.21;99995.34;4991512;28;20428;-57
2021/08/05 08:16:48;;;;;;;0.10;0.10;;;;;;;32.57;26.31;100004.09;4991937;28;20097;-56
2021/08/05 08:19:14;;;;;;;0.20;0.20;;;;;;;32.59;26.86;99999.34;4991380;28;20054;-57
2021/08/05 08:21:40;;;;;;;0.10;0.10;;;;;;;32.54;26.85;100008.06;4989974;28;20206;-56
2021/08/05 08:24:07;;;;;;;0.00;0.00;;;;;;;32.48;26.56;100011.66;4991368;28;20050;-59
2021/08/05 08:26:33;;;;;;;0.20;0.20;;;;;;;32.40;27.07;100007.38;4991675;28;20401;-55
2021/08/05 08:28:59;;;;;;;0.10;0.10;;;;;;;32.24;26.70;99990.88;4990975;28;20512;-55
2021/08/05 08:31:25;;;;;;;0.10;0.10;;;;;;;32.28;26.97;100011.00;4991189;28;20058;-55
2021/08/05 08:33:51;;;;;;;0.08;0.08;;;;;;;32.25;27.18;100008.75;4991563;28;20149;-57
2021/08/05 08:36:18;;;;;;;0.10;0.10;;;;;;;32.24;27.05;100005.22;4991167;28;20145;-56
2021/08/05 08:38:44;;;;;;;0.13;0.13;;;;;;;32.24;27.23;100004.38;4990212;28;20518;-57
2021/08/05 08:41:12;;;;;;;0.10;0.10;;;;;;;32.25;27.18;100000.66;4990963;28;20061;-56
2021/08/05 08:43:39;;;;;;;0.10;0.10;;;;;;;32.26;27.00;100002.31;4991284;28;20050;-56
2021/08/05 08:46:05;;;;;;;0.15;0.15;;;;;;;32.36;27.19;100008.84;4991125;28;20104;-56
2021/08/05 08:48:31;;;;;;;0.10;0.10;;;;;;;32.46;26.99;100008.38;4989695;28;20054;-56
2021/08/05 08:51:00;;;;;;;0.10;0.10;;;;;;;32.47;27.03;100000.03;4991109;28;20050;-56
2021/08/05 08:53:34;;;;;;;0.10;0.10;;;;;;;32.47;26.87;99994.63;4990890;28;20057;-56
2021/08/05 08:56:00;;;;;;;0.10;0.10;;;;;;;32.36;26.90;99994.53;4990853;28;20054;-56
2021/08/05 08:58:26;;;;;;;0.10;0.10;;;;;;;32.32;27.33;99993.31;4990641;28;20491;-56
2021/08/05 09:00:53;;;;;;;0.22;0.22;;;;;;;32.20;27.22;99992.38;4990950;28;20499;-54
2021/08/05 09:03:20;;;;;;;0.00;0.00;;;;;;;32.02;27.40;99979.59;4973392;28;20061;-55
2021/08/05 09:05:47;;;;;;;0.10;0.10;;;;;;;31.93;27.46;99981.75;4989609;28;20057;-55
2021/08/05 09:08:13;;;;;;;0.00;0.00;;;;;;;31.82;27.99;99979.75;4990759;28;20050;-53
2021/08/05 09:10:39;;;;;;;0.00;0.00;;;;;;;31.65;27.74;99967.81;4990878;28;20535;-52
2021/08/05 09:13:05;;;;;;;0.10;0.10;;;;;;;31.67;27.98;99986.50;4990650;28;20129;-52
2021/08/05 09:15:43;;;;;;;0.05;0.05;;;;;;;31.60;28.09;99981.16;4973200;28;20058;-54
2021/08/05 09:18:35;;;;;;;0.10;0.10;;;;;;;31.46;28.33;99979.53;4973255;28;20050;-56
2021/08/05 09:21:17;;;;;;;0.08;0.08;;;;;;;31.34;28.59;99973.16;4989085;28;20635;-57
2021/08/05 09:24:01;;;;;;;0.00;0.00;;;;;;;31.31;28.68;99976.28;4990850;28;20061;-56
2021/08/05 09:26:47;;;;;;;0.00;0.00;;;;;;;31.28;28.70;99974.03;4990396;28;20604;-55
2021/08/05 09:29:15;;;;;;;0.00;0.00;;;;;;;31.31;28.48;99979.00;4990123;28;20058;-55
2021/08/05 09:32:05;;;;;;;0.10;0.10;;;;;;;31.37;28.59;99972.72;4991003;28;20105;-55
2021/08/05 09:34:36;;;;;;;0.10;0.10;;;;;;;31.40;28.45;99977.69;4989128;28;20491;-55
2021/08/05 09:37:05;;;;;;;0.10;0.10;;;;;;;31.39;28.51;99971.47;4990181;28;20050;-56
2021/08/05 09:39:32;;;;;;;;;;;;;;;31.37;28.70;99967.34;4989899;28;20055;-54
2021/08/05 09:42:14;;;;;;;0.10;0.10;;;;;;;31.36;28.44;99965.66;4989878;28;19922;-56
2021/08/05 09:44:45;;;;;;;0.10;0.10;;;;;;;31.40;28.51;99964.19;4990389;28;20103;-56
2021/08/05 09:47:18;;;;;;;0.00;0.00;;;;;;;31.46;28.43;99968.72;4990310;28;20539;-56
2021/08/05 09:49:47;;;;;;;0.10;0.10;;;;;;;31.50;28.29;99964.59;4989013;28;20054;-54
2021/08/05 09:52:34;;;;;;;0.10;0.10;;;;;;;31.49;28.24;99962.91;4990019;28;20076;-53
2021/08/05 09:55:02;;;;;;;0.10;0.10;;;;;;;31.40;28.26;99948.00;4989912;28;20315;-53
2021/08/05 09:57:29;;;;;;;0.00;0.00;;;;;;;31.39;28.61;99955.28;4989990;28;20452;-54
2021/08/05 09:59:55;;;;;;;0.03;0.03;;;;;;;31.39;28.50;99957.13;4990135;28;20046;-55
2021/08/05 10:02:22;;;;;;;0.10;0.10;;;;;;;31.29;28.89;99954.06;4989657;28;20058;-54
2021/08/05 10:04:48;;;;;;;0.00;0.00;;;;;;;31.28;28.86;99961.34;4990150;28;20051;-56
2021/08/05 10:07:14;;;;;;;0.10;0.10;;;;;;;31.24;28.60;99959.31;4989937;28;20162;-54
2021/08/05 10:09:41;;;;;;;0.10;0.10;;;;;;;31.10;28.96;99938.81;4989941;28;20606;-53
2021/08/05 10:12:12;;;;;;;0.10;0.10;;;;;;;31.17;28.95;99953.09;4989867;28;20058;-53
2021/08/05 10:14:38;;;;;;;0.10;0.10;;;;;;;31.10;28.88;99947.75;4988713;28;20095;-54
2021/08/05 10:17:08;;;;;;;0.00;0.00;;;;;;;31.10;28.88;99952.31;4988814;28;20058;-54
2021/08/05 10:19:38;;;;;;;;;;;;;;;31.15;29.03;99961.41;4990090;28;20054;-56
2021/08/05 10:22:04;;;;;;;0.10;0.10;;;;;;;31.12;29.12;99955.63;4991729;28;20036;-56
2021/08/05 10:24:34;;;;;;;0.00;0.00;;;;;;;31.08;29.08;99957.09;4991634;28;20057;-56
2021/08/05 10:27:01;;;;;;;0.10;0.10;;;;;;;30.97;29.08;99947.78;5009719;28;20531;-56
2021/08/05 10:29:26;;;;;;;0.10;0.10;;;;;;;30.93;28.98;99950.06;5009147;28;20275;-56
2021/08/05 10:31:52;;;;;;;0.43;0.43;;;;;;;30.82;29.18;99950.75;5009881;28;20255;-54
2021/08/05 10:34:19;;;;;;;0.08;0.08;;;;;;;30.74;29.30;99948.25;4991604;28;20494;-55
2021/08/05 10:36:44;;;;;;;0.10;0.10;;;;;;;30.60;29.41;99946.63;4991718;28;20145;-52
2021/08/05 10:39:11;;;;;;;0.10;0.10;;;;;;;30.51;29.60;99953.28;4991815;28;20058;-54
2021/08/05 10:41:37;;;;;;;0.00;0.00;;;;;;;30.38;30.03;99947.91;4991702;28;20435;-54
2021/08/05 10:44:03;;;;;;;0.22;0.22;;;;;;;30.28;30.09;99947.50;5009292;28;20065;-55
2021/08/05 10:46:35;;;;;;;0.00;0.00;;;;;;;30.16;30.34;99943.78;4991494;28;20049;-53
2021/08/05 10:49:03;;;;;;;0.15;0.15;;;;;;;30.09;30.30;99941.09;4977452;28;20416;-55
2021/08/05 10:51:41;;;;;;;0.10;0.10;;;;;;;30.09;30.27;99942.94;4991792;28;20184;-56
2021/08/05 10:54:08;;;;;;;0.00;0.00;;;;;;;30.10;30.36;99947.31;5012879;28;20042;-54
2021/08/05 10:56:34;;;;;;;0.10;0.10;;;;;;;30.03;30.28;99930.31;5012541;28;20049;-55
2021/08/05 10:59:10;;;;;;;0.08;0.08;;;;;;;29.91;30.55;99930.94;5013175;28;20042;-57
2021/08/05 11:01:53;;;;;;;0.00;0.00;;;;;;;29.92;30.79;99943.38;5012948;28;20058;-57
2021/08/05 11:04:32;;;;;;;0.00;0.00;;;;;;;29.83;30.98;99943.78;4995626;28;20053;-54
2021/08/05 11:07:20;;;;;;;0.10;0.10;;;;;;;29.72;30.87;99936.28;5012881;28;20057;-56
2021/08/05 11:09:48;;;;;;;0.00;0.00;;;;;;;29.59;31.09;99931.69;5012698;28;20053;-53
2021/08/05 11:12:49;;;;;;;0.20;0.20;;;;;;;29.54;31.33;99933.38;4995530;28;20492;-55
2021/08/05 11:15:22;;;;;;;0.00;0.00;;;;;;;29.48;31.38;99935.00;5012374;28;20520;-54
2021/08/05 11:18:09;;;;;;;0.00;0.00;;;;;;;29.44;31.48;99937.28;5012832;28;20096;-56
2021/08/05 11:20:39;;;;;;;0.00;0.00;;;;;;;29.38;31.43;99934.56;5004700;28;20057;-57
2021/08/05 11:23:06;;;;;;;0.03;0.03;;;;;;;29.39;31.48;99941.59;4992869;28;20050;-53
2021/08/05 11:25:53;;;;;;;0.10;0.10;;;;;;;29.36;31.73;99942.84;4992746;28;20051;-54
2021/08/05 11:28:25;;;;;;;0.10;0.10;;;;;;;29.30;31.68;99934.75;4992511;28;20046;-53
2021/08/05 11:31:04;;;;;;;0.05;0.05;;;;;;;29.28;32.04;99940.34;4991570;28;20054;-54